createdAt,value
2022-12-11T00:02:07.367Z,55.38
2022-12-11T00:04:33.930Z,63.85
2022-12-11T00:07:00.500Z,56.75
2022-12-11T00:09:27.183Z,64.10
2022-12-11T00:11:53.649Z,58.58
2022-12-11T00:14:20.546Z,68.70
2022-12-11T00:16:48.624Z,60.58
2022-12-11T00:19:15.759Z,61.78
2022-12-11T00:21:42.464Z,51.33
2022-12-11T00:24:09.248Z,63.35
2022-12-11T00:26:35.815Z,58.28
2022-12-11T00:29:02.409Z,59.05
2022-12-11T00:31:28.945Z,54.22
2022-12-11T00:33:55.555Z,48.83
2022-12-11T00:36:25.079Z,56.13
2022-12-11T00:38:52.690Z,57.05
2022-12-11T00:41:19.874Z,54.63
2022-12-11T00:43:47.368Z,44.17
2022-12-11T00:46:14.048Z,52.30
2022-12-11T00:48:40.738Z,48.08
2022-12-11T00:51:07.628Z,50.80
2022-12-11T00:53:34.169Z,57.38
2022-12-11T00:56:00.722Z,51.53
2022-12-11T00:58:27.459Z,59.47
2022-12-11T01:00:54.194Z,52.38
2022-12-11T01:03:20.865Z,58.33
2022-12-11T01:05:54.942Z,59.95
2022-12-11T01:08:21.997Z,54.67
2022-12-11T01:10:49.021Z,60.38
2022-12-11T01:13:15.999Z,62.83
2022-12-11T01:15:45.322Z,63.63
2022-12-11T01:18:14.137Z,61.08
2022-12-11T01:20:42.596Z,55.75
2022-12-11T01:23:11.302Z,70.45
2022-12-11T01:25:40.673Z,56.92
2022-12-11T01:28:07.724Z,53.10
2022-12-11T01:30:34.707Z,62.95
2022-12-11T01:33:01.516Z,70.03
2022-12-11T01:35:28.852Z,75.78
2022-12-11T01:37:55.715Z,62.97
2022-12-11T01:40:22.772Z,64.28
2022-12-11T01:42:49.303Z,65.70
2022-12-11T01:45:30.998Z,61.38
2022-12-11T01:48:11.323Z,64.82
2022-12-11T01:50:59.859Z,54.08
2022-12-11T01:53:34.415Z,58.60
2022-12-11T01:56:02.726Z,57.63
2022-12-11T01:58:35.509Z,49.90
2022-12-11T02:01:03.040Z,55.30
2022-12-11T02:03:30.017Z,61.67
2022-12-11T02:06:00.660Z,49.60
2022-12-11T02:08:27.243Z,55.88
2022-12-11T02:11:09.413Z,58.47
2022-12-11T02:13:49.808Z,58.65
2022-12-11T02:16:26.165Z,52.80
2022-12-11T02:19:08.011Z,56.53
2022-12-11T02:21:41.115Z,53.15
2022-12-11T02:24:41.933Z,54.42
2022-12-11T02:27:24.686Z,57.45
2022-12-11T02:30:01.194Z,58.70
2022-12-11T02:32:58.908Z,52.85
2022-12-11T02:35:34.587Z,53.47
2022-12-11T02:38:06.024Z,55.13
2022-12-11T02:40:36.841Z,50.08
2022-12-11T02:43:07.065Z,59.58
2022-12-11T02:45:35.010Z,54.47
2022-12-11T02:48:05.787Z,61.53
2022-12-11T02:50:36.083Z,53.17
2022-12-11T02:53:04.294Z,52.25
2022-12-11T02:55:33.514Z,54.85
2022-12-11T02:58:03.583Z,55.97
2022-12-11T03:00:32.884Z,55.78
2022-12-11T03:02:59.584Z,51.53
2022-12-11T03:05:27.896Z,49.40
2022-12-11T03:07:54.626Z,57.92
2022-12-11T03:10:21.219Z,44.72
2022-12-11T03:12:53.841Z,50.45
2022-12-11T03:15:23.895Z,46.20
2022-12-11T03:18:05.495Z,47.88
2022-12-11T03:20:38.176Z,53.03
2022-12-11T03:23:16.531Z,51.05
2022-12-11T03:25:49.200Z,49.92
2022-12-11T03:28:26.907Z,47.08
2022-12-11T03:30:54.424Z,48.70
2022-12-11T03:33:32.873Z,50.40
2022-12-11T03:36:05.841Z,39.33
2022-12-11T03:38:39.319Z,44.20
2022-12-11T03:41:07.759Z,38.45
2022-12-11T03:43:35.382Z,40.95
2022-12-11T03:46:02.417Z,46.03
2022-12-11T03:48:34.454Z,42.13
2022-12-11T03:51:04.397Z,41.17
2022-12-11T03:53:32.453Z,44.78
2022-12-11T03:56:00.640Z,43.30
2022-12-11T03:58:27.176Z,48.05
2022-12-11T04:00:53.771Z,39.15
2022-12-11T04:03:20.290Z,38.83
2022-12-11T04:05:49.516Z,41.67
2022-12-11T04:08:17.914Z,36.63
2022-12-11T04:10:44.724Z,37.47
2022-12-11T04:13:11.294Z,38.78
2022-12-11T04:15:41.619Z,36.50
2022-12-11T04:18:27.426Z,38.78
2022-12-11T04:21:14.031Z,31.27
2022-12-11T04:23:59.288Z,31.50
2022-12-11T04:26:26.021Z,36.88
2022-12-11T04:28:52.601Z,35.63
2022-12-11T04:31:22.077Z,33.97
2022-12-11T04:33:49.068Z,35.10
2022-12-11T04:36:16.438Z,35.65
2022-12-11T04:38:42.927Z,36.20
2022-12-11T04:41:15.874Z,31.52
2022-12-11T04:43:45.017Z,32.78
2022-12-11T04:46:18.138Z,34.53
2022-12-11T04:48:45.659Z,34.00
2022-12-11T04:51:12.674Z,28.73
2022-12-11T04:53:39.169Z,29.65
2022-12-11T04:56:07.610Z,29.90
2022-12-11T04:58:35.910Z,29.15
2022-12-11T05:01:12.959Z,27.05
2022-12-11T05:03:40.397Z,29.25
2022-12-11T05:06:07.929Z,40.40
2022-12-11T05:08:36.899Z,30.75
2022-12-11T05:11:06.147Z,28.98
2022-12-11T05:13:33.295Z,28.17
2022-12-11T05:16:00.412Z,27.38
2022-12-11T05:18:26.959Z,21.63
2022-12-11T05:21:01.781Z,28.92
2022-12-11T05:23:29.324Z,26.60
2022-12-11T05:26:02.255Z,26.77
2022-12-11T05:28:31.129Z,27.77
2022-12-11T05:30:59.628Z,22.42
2022-12-11T05:33:26.523Z,24.25
2022-12-11T05:35:53.221Z,30.25
2022-12-11T05:38:20.130Z,25.80
2022-12-11T05:41:01.115Z,24.08
2022-12-11T05:43:29.514Z,25.55
2022-12-11T05:45:57.128Z,25.45
2022-12-11T05:48:23.654Z,27.88
2022-12-11T05:50:58.808Z,24.77
2022-12-11T05:53:26.236Z,24.88
2022-12-11T05:55:52.776Z,24.92
2022-12-11T05:58:19.976Z,22.73
2022-12-11T06:00:47.246Z,27.08
2022-12-11T06:03:14.351Z,28.00
2022-12-11T06:05:42.761Z,21.83
2022-12-11T06:08:09.966Z,28.48
2022-12-11T06:10:36.536Z,23.15
2022-12-11T06:13:03.651Z,28.98
2022-12-11T06:15:30.220Z,27.25
2022-12-11T06:17:56.666Z,24.02
2022-12-11T06:20:23.201Z,25.15
2022-12-11T06:22:49.699Z,27.77
2022-12-11T06:25:16.253Z,24.52
2022-12-11T06:27:42.670Z,26.08
2022-12-11T06:30:09.936Z,25.75
2022-12-11T06:32:36.782Z,32.58
2022-12-11T06:35:03.475Z,29.15
2022-12-11T06:37:30.002Z,26.15
2022-12-11T06:39:56.519Z,24.85
2022-12-11T06:42:23.712Z,30.10
2022-12-11T06:44:50.253Z,29.33
2022-12-11T06:47:16.716Z,24.58
2022-12-11T06:49:43.212Z,25.00
2022-12-11T06:52:12.529Z,29.45
2022-12-11T06:54:43.187Z,28.73
2022-12-11T06:57:10.156Z,35.38
2022-12-11T06:59:36.811Z,31.75
2022-12-11T07:02:04.203Z,30.65
2022-12-11T07:04:31.126Z,32.80
2022-12-11T07:06:57.779Z,30.75
2022-12-11T07:09:25.224Z,35.45
2022-12-11T07:11:52.806Z,36.08
2022-12-11T07:14:20.421Z,34.03
2022-12-11T07:16:46.987Z,32.60
2022-12-11T07:19:13.662Z,41.42
2022-12-11T07:21:40.151Z,30.25
2022-12-11T07:24:07.562Z,32.15
2022-12-11T07:26:34.335Z,29.20
2022-12-11T07:29:00.913Z,33.92
2022-12-11T07:31:28.731Z,36.28
2022-12-11T07:34:06.645Z,31.10
2022-12-11T07:36:34.281Z,32.13
2022-12-11T07:39:01.720Z,34.58
2022-12-11T07:41:28.759Z,34.40
2022-12-11T07:43:56.265Z,31.67
2022-12-11T07:46:25.561Z,29.15
2022-12-11T07:48:52.301Z,35.97
2022-12-11T07:51:24.972Z,32.55
2022-12-11T07:53:51.452Z,30.05
2022-12-11T07:56:19.562Z,30.40
2022-12-11T07:58:46.464Z,28.38
2022-12-11T08:01:14.981Z,29.25
2022-12-11T08:03:42.191Z,25.30
2022-12-11T08:06:09.835Z,27.98
2022-12-11T08:08:36.666Z,32.47
2022-12-11T08:11:05.062Z,28.95
2022-12-11T08:13:31.830Z,28.20
2022-12-11T08:15:58.524Z,29.88
2022-12-11T08:18:25.215Z,29.98
2022-12-11T08:20:51.666Z,29.08
2022-12-11T08:23:18.162Z,27.02
2022-12-11T08:25:44.631Z,28.35
2022-12-11T08:28:11.131Z,27.38
2022-12-11T08:30:39.050Z,27.85
2022-12-11T08:33:06.473Z,32.00
2022-12-11T08:35:33.381Z,32.08
2022-12-11T08:37:59.936Z,34.20
2022-12-11T08:40:26.438Z,27.33
2022-12-11T08:42:52.957Z,34.97
2022-12-11T08:45:19.491Z,26.23
2022-12-11T08:47:46.056Z,29.60
2022-12-11T08:50:12.576Z,32.25
2022-12-11T08:52:39.014Z,24.30
2022-12-11T08:55:06.063Z,26.30
2022-12-11T08:57:32.570Z,23.80
2022-12-11T08:59:59.387Z,26.40
2022-12-11T09:02:25.945Z,28.05
2022-12-11T09:04:52.504Z,29.83
2022-12-11T09:07:19.003Z,30.00
2022-12-11T09:09:45.556Z,28.85
2022-12-11T09:12:12.153Z,24.20
2022-12-11T09:14:38.616Z,27.20
2022-12-11T09:17:05.516Z,29.85
2022-12-11T09:19:32.562Z,24.65
2022-12-11T09:21:59.416Z,28.58
2022-12-11T09:24:25.931Z,28.20
2022-12-11T09:26:52.467Z,29.13
2022-12-11T09:29:19.047Z,24.20
2022-12-11T09:31:46.821Z,24.70
2022-12-11T09:34:13.957Z,27.35
2022-12-11T09:36:42.126Z,27.20
2022-12-11T09:39:09.242Z,22.92
2022-12-11T09:42:04.954Z,30.80
2022-12-11T09:44:49.096Z,27.20
2022-12-11T09:47:36.615Z,22.45
2022-12-11T09:50:06.531Z,31.60
2022-12-11T09:52:39.609Z,30.60
2022-12-11T09:55:18.367Z,26.50
2022-12-11T09:58:14.343Z,24.98
2022-12-11T10:00:49.501Z,29.60
2022-12-11T10:03:26.782Z,26.10
2022-12-11T10:06:05.391Z,27.65
2022-12-11T10:08:41.283Z,27.35
2022-12-11T10:11:42.718Z,26.85
2022-12-11T10:14:21.182Z,25.88
2022-12-11T10:16:52.307Z,27.17
2022-12-11T10:19:26.307Z,31.17
2022-12-11T10:21:53.953Z,22.98
2022-12-11T10:27:39.935Z,25.02
2022-12-11T10:30:34.188Z,23.52
2022-12-11T10:33:20.068Z,28.58
2022-12-11T10:35:53.731Z,25.08
2022-12-11T10:38:27.466Z,25.95
2022-12-11T10:41:06.212Z,27.48
2022-12-11T10:43:39.190Z,24.25
2022-12-11T10:46:13.033Z,24.23
2022-12-11T10:48:57.324Z,23.45
2022-12-11T10:51:35.347Z,87.70
2022-12-11T10:54:40.354Z,24.52
2022-12-11T10:57:10.302Z,25.55
2022-12-11T10:59:43.997Z,24.20
2022-12-11T11:02:31.182Z,21.67
2022-12-11T11:05:00.425Z,20.80
2022-12-11T11:07:29.706Z,22.17
2022-12-11T11:10:11.553Z,21.27
2022-12-11T11:12:41.429Z,23.83
2022-12-11T11:15:14.140Z,23.58
2022-12-11T11:17:55.855Z,22.65
2022-12-11T11:20:26.630Z,21.45
2022-12-11T11:22:59.919Z,21.40
2022-12-11T11:25:29.334Z,24.50
2022-12-11T11:28:08.297Z,23.95
2022-12-11T11:30:39.351Z,22.17
2022-12-11T11:33:13.577Z,21.40
2022-12-11T11:35:45.655Z,21.98
2022-12-11T11:38:22.272Z,21.27
2022-12-11T11:40:56.220Z,20.10
2022-12-11T11:43:41.208Z,22.00
2022-12-11T11:46:17.674Z,22.20
2022-12-11T11:49:00.438Z,17.30
2022-12-11T11:51:47.685Z,20.02
2022-12-11T11:54:35.894Z,20.60
2022-12-11T11:57:14.890Z,23.65
2022-12-11T11:59:47.166Z,21.88
2022-12-11T12:02:16.505Z,21.63
2022-12-11T12:04:45.157Z,23.42
2022-12-11T12:07:14.427Z,24.67
2022-12-11T12:10:05.579Z,22.38
2022-12-11T12:12:57.801Z,22.07
2022-12-11T12:15:39.862Z,24.23
2022-12-11T12:18:18.577Z,23.27
2022-12-11T12:21:24.090Z,19.25
2022-12-11T12:24:03.115Z,19.80
2022-12-11T12:26:33.191Z,25.35
2022-12-11T12:29:29.579Z,27.10
2022-12-11T12:32:16.079Z,23.15
2022-12-11T12:35:10.337Z,22.05
2022-12-11T12:37:55.832Z,22.05
2022-12-11T12:40:57.140Z,20.00
2022-12-11T12:43:57.634Z,24.87
2022-12-11T12:46:49.222Z,22.25
2022-12-11T12:49:28.147Z,23.80
2022-12-11T12:51:55.664Z,23.88
2022-12-11T12:54:22.787Z,27.33
2022-12-11T12:56:49.645Z,26.95
2022-12-11T12:59:21.997Z,29.25
2022-12-11T13:01:55.196Z,28.45
2022-12-11T13:04:54.876Z,25.15
2022-12-11T13:07:29.481Z,23.58
2022-12-11T13:09:58.598Z,30.75
2022-12-11T13:12:39.547Z,24.75
2022-12-11T13:15:06.396Z,28.05
2022-12-11T13:17:38.898Z,28.08
2022-12-11T13:20:14.114Z,33.95
2022-12-11T13:23:26.196Z,26.80
2022-12-11T13:25:58.722Z,27.77
2022-12-11T13:28:29.921Z,27.33
2022-12-11T13:30:59.874Z,28.38
2022-12-11T13:33:29.081Z,30.42
2022-12-11T13:36:16.755Z,30.35
2022-12-11T13:39:06.763Z,26.85
2022-12-11T13:41:36.707Z,29.60
2022-12-11T13:44:04.945Z,27.88
2022-12-11T13:46:36.518Z,29.13
2022-12-11T13:49:06.790Z,29.27
2022-12-11T13:51:37.821Z,27.40
2022-12-11T13:54:25.487Z,30.02
2022-12-11T13:57:01.138Z,30.35
2022-12-11T13:59:36.572Z,30.58
2022-12-11T14:02:26.480Z,25.08
2022-12-11T14:04:56.985Z,29.10
2022-12-11T14:07:30.676Z,30.58
2022-12-11T14:10:05.608Z,29.00
2022-12-11T14:12:32.769Z,32.28
2022-12-11T14:15:02.283Z,27.52
2022-12-11T14:17:32.163Z,32.22
2022-12-11T14:20:03.330Z,32.50
2022-12-11T14:22:30.479Z,29.58
2022-12-11T14:25:03.689Z,33.75
2022-12-11T14:27:30.400Z,29.52
2022-12-11T14:29:56.951Z,29.73
2022-12-11T14:32:40.604Z,32.83
2022-12-11T14:35:23.732Z,35.42
2022-12-11T14:37:51.040Z,28.98
2022-12-11T14:40:22.467Z,33.58
2022-12-11T14:43:00.523Z,34.97
2022-12-11T14:45:34.634Z,33.97
2022-12-11T14:48:09.658Z,31.73
2022-12-11T14:50:47.930Z,32.28
2022-12-11T14:53:19.819Z,36.75
2022-12-11T14:55:48.958Z,30.13
2022-12-11T14:58:21.123Z,32.42
2022-12-11T15:00:59.966Z,31.42
2022-12-11T15:03:33.547Z,31.02
2022-12-11T15:06:01.270Z,33.58
2022-12-11T15:08:33.780Z,31.23
2022-12-11T15:11:10.098Z,37.15
2022-12-11T15:13:48.713Z,36.78
2022-12-11T15:16:15.802Z,35.08
2022-12-11T15:18:42.939Z,43.05
2022-12-11T15:21:12.174Z,37.85
2022-12-11T15:23:44.812Z,36.60
2022-12-11T15:26:11.627Z,32.83
2022-12-11T15:28:39.292Z,36.30
2022-12-11T15:31:25.613Z,36.65
2022-12-11T15:33:52.256Z,36.67
2022-12-11T15:36:26.742Z,33.35
2022-12-11T15:38:53.577Z,39.05
2022-12-11T15:41:25.871Z,37.97
2022-12-11T15:43:58.678Z,48.85
2022-12-11T15:46:26.563Z,50.85
2022-12-11T15:48:54.107Z,46.25
2022-12-11T15:51:20.668Z,37.95
2022-12-11T15:53:47.181Z,34.75
2022-12-11T15:56:15.568Z,37.22
2022-12-11T15:58:45.478Z,34.55
2022-12-11T16:01:12.277Z,43.38
2022-12-11T16:03:38.788Z,38.53
2022-12-11T16:06:05.583Z,34.38
2022-12-11T16:08:32.324Z,36.92
2022-12-11T16:10:59.217Z,36.70
2022-12-11T16:13:27.146Z,38.88
2022-12-11T16:15:54.314Z,34.50
2022-12-11T16:18:23.151Z,28.48
2022-12-11T16:20:51.436Z,29.25
2022-12-11T16:23:18.827Z,34.03
2022-12-11T16:25:46.487Z,32.92
2022-12-11T16:28:15.471Z,30.85
2022-12-11T16:30:43.442Z,33.58
2022-12-11T16:33:13.070Z,28.13
2022-12-11T16:35:41.324Z,31.40
2022-12-11T16:38:08.136Z,30.50
2022-12-11T16:40:34.673Z,29.45
2022-12-11T16:43:01.240Z,29.13
2022-12-11T16:45:27.924Z,30.02
2022-12-11T16:47:54.991Z,29.58
2022-12-11T16:50:22.401Z,34.72
2022-12-11T16:52:49.313Z,29.83
2022-12-11T16:55:15.960Z,34.20
2022-12-11T16:57:43.567Z,37.95
2022-12-11T17:00:12.585Z,32.58
2022-12-11T17:02:39.679Z,29.00
2022-12-11T17:05:06.498Z,33.92
2022-12-11T17:07:33.498Z,33.22
2022-12-11T17:10:01.757Z,67.97
2022-12-11T17:12:28.521Z,40.67
2022-12-11T17:14:56.383Z,31.70
2022-12-11T17:17:23.021Z,32.60
2022-12-11T17:19:49.618Z,30.77
2022-12-11T17:22:16.189Z,27.60
2022-12-11T17:24:42.702Z,27.27
2022-12-11T17:27:09.269Z,30.63
2022-12-11T17:29:35.834Z,29.20
2022-12-11T17:32:03.296Z,31.00
2022-12-11T17:34:36.056Z,28.67
2022-12-11T17:37:04.991Z,24.48
2022-12-11T17:39:31.705Z,30.60
2022-12-11T17:41:58.271Z,28.95
2022-12-11T17:44:26.420Z,27.08
2022-12-11T17:46:53.063Z,25.85
2022-12-11T17:49:19.839Z,33.15
2022-12-11T17:51:47.834Z,28.17
2022-12-11T17:54:14.691Z,29.55
2022-12-11T17:56:41.298Z,31.48
2022-12-11T17:59:07.783Z,30.00
2022-12-11T18:01:34.723Z,27.35
2022-12-11T18:04:02.315Z,28.20
2022-12-11T18:06:29.560Z,33.47
2022-12-11T18:08:56.297Z,35.65
2022-12-11T18:11:23.728Z,37.55
2022-12-11T18:13:52.123Z,40.78
2022-12-11T18:16:38.063Z,40.00
2022-12-11T18:19:05.927Z,35.72
2022-12-11T18:21:34.869Z,28.77
2022-12-11T18:24:02.037Z,27.73
2022-12-11T18:26:29.081Z,28.55
2022-12-11T18:28:55.626Z,26.23
2022-12-11T18:31:22.626Z,30.20
2022-12-11T18:33:49.972Z,25.98
2022-12-11T18:36:18.738Z,34.47
2022-12-11T18:38:46.982Z,36.05
2022-12-11T18:41:15.366Z,30.90
2022-12-11T18:43:41.915Z,25.80
2022-12-11T18:46:14.366Z,29.13
2022-12-11T18:48:42.770Z,22.40
2022-12-11T18:51:12.220Z,21.48
2022-12-11T18:53:39.622Z,21.15
2022-12-11T18:56:09.721Z,20.92
2022-12-11T18:58:36.691Z,21.85
2022-12-11T19:01:12.329Z,18.65
2022-12-11T19:03:38.892Z,23.00
2022-12-11T19:06:11.700Z,25.98
2022-12-11T19:08:38.536Z,22.55
2022-12-11T19:11:05.710Z,23.95
2022-12-11T19:13:32.767Z,21.92
2022-12-11T19:16:00.268Z,23.05
2022-12-11T19:18:27.773Z,22.85
2022-12-11T19:21:03.083Z,22.00
2022-12-11T19:23:31.717Z,20.35
2022-12-11T19:25:58.505Z,22.23
2022-12-11T19:28:25.047Z,26.05
2022-12-11T19:30:51.602Z,28.33
2022-12-11T19:33:18.126Z,23.23
2022-12-11T19:35:44.982Z,21.67
2022-12-11T19:38:12.867Z,22.05
2022-12-11T19:40:44.666Z,21.75
2022-12-11T19:45:38.093Z,20.13
2022-12-11T19:48:05.075Z,19.85
2022-12-11T19:50:35.247Z,21.10
2022-12-11T19:53:01.741Z,21.17
2022-12-11T19:55:28.852Z,21.52
2022-12-11T19:57:55.573Z,24.77
2022-12-11T20:00:22.214Z,23.58
2022-12-11T20:02:49.061Z,19.40
2022-12-11T20:05:15.756Z,22.88
2022-12-11T20:07:44.377Z,21.08
2022-12-11T20:10:11.826Z,20.77
2022-12-11T20:12:38.307Z,22.70
2022-12-11T20:15:06.049Z,21.90
2022-12-11T20:17:33.343Z,21.17
2022-12-11T20:20:00.009Z,25.40
2022-12-11T20:22:26.504Z,26.58
2022-12-11T20:24:52.984Z,29.80
2022-12-11T20:27:19.544Z,22.88
2022-12-11T20:29:45.991Z,27.40
2022-12-11T20:32:12.546Z,23.83
2022-12-11T20:34:39.473Z,23.33
2022-12-11T20:37:05.977Z,26.65
2022-12-11T20:39:32.581Z,25.63
2022-12-11T20:41:59.568Z,23.48
2022-12-11T20:44:26.125Z,20.20
2022-12-11T20:46:52.735Z,21.80
2022-12-11T20:49:19.557Z,23.65
2022-12-11T20:51:46.140Z,21.90
2022-12-11T20:54:12.676Z,24.23
2022-12-11T20:56:39.179Z,24.58
2022-12-11T20:59:05.723Z,21.33
2022-12-11T21:01:33.054Z,22.80
2022-12-11T21:03:59.795Z,26.95
2022-12-11T21:06:31.085Z,24.13
2022-12-11T21:08:59.887Z,26.25
2022-12-11T21:11:27.079Z,19.35
2022-12-11T21:13:54.477Z,19.85
2022-12-11T21:16:21.853Z,21.42
2022-12-11T21:18:48.763Z,22.90
2022-12-11T21:21:16.278Z,23.00
2022-12-11T21:23:42.792Z,22.65
2022-12-11T21:26:09.960Z,23.23
2022-12-11T21:28:36.600Z,24.88
2022-12-11T21:31:09.203Z,22.70
2022-12-11T21:33:36.252Z,21.08
2022-12-11T21:36:04.067Z,24.98
2022-12-11T21:38:30.532Z,22.73
2022-12-11T21:40:57.314Z,22.27
2022-12-11T21:43:24.801Z,26.42
2022-12-11T21:46:01.515Z,19.98
2022-12-11T21:48:29.073Z,21.38
2022-12-11T21:50:56.006Z,19.80
2022-12-11T21:53:22.721Z,21.02
2022-12-11T21:55:49.241Z,19.33
2022-12-11T21:58:15.814Z,21.25
2022-12-11T22:00:42.618Z,20.73
2022-12-11T22:03:09.284Z,18.60
2022-12-11T22:05:35.871Z,23.08
2022-12-11T22:08:02.473Z,21.40
2022-12-11T22:10:29.191Z,22.05
2022-12-11T22:12:55.729Z,17.85
2022-12-11T22:15:22.320Z,19.45
2022-12-11T22:17:49.118Z,21.33
2022-12-11T22:20:15.730Z,21.40
2022-12-11T22:22:42.287Z,20.77
2022-12-11T22:25:09.651Z,20.05
2022-12-11T22:27:36.486Z,21.30
2022-12-11T22:30:04.396Z,21.92
2022-12-11T22:32:30.992Z,18.83
2022-12-11T22:34:57.834Z,21.75
2022-12-11T22:37:24.864Z,20.48
2022-12-11T22:39:51.454Z,20.13
2022-12-11T22:42:18.035Z,20.73
2022-12-11T22:44:44.572Z,20.83
2022-12-11T22:47:11.373Z,23.65
2022-12-11T22:49:37.955Z,19.52
2022-12-11T22:52:04.837Z,20.92
2022-12-11T22:54:31.590Z,17.90
2022-12-11T22:56:58.065Z,20.58
2022-12-11T22:59:24.576Z,21.20
2022-12-11T23:01:51.221Z,21.58
2022-12-11T23:04:17.704Z,18.60
2022-12-11T23:06:44.175Z,25.42
2022-12-11T23:09:10.806Z,20.60
2022-12-11T23:11:38.490Z,18.38
2022-12-11T23:14:06.953Z,20.88
2022-12-11T23:16:33.928Z,25.17
2022-12-11T23:19:00.990Z,22.25
2022-12-11T23:21:28.325Z,20.27
2022-12-11T23:23:55.219Z,23.13
2022-12-11T23:26:22.967Z,19.75
2022-12-11T23:28:50.084Z,23.05
2022-12-11T23:31:17.274Z,20.95
2022-12-11T23:33:44.546Z,18.80
2022-12-11T23:36:11.719Z,21.95
2022-12-11T23:38:39.440Z,19.50
2022-12-11T23:41:08.325Z,19.63
2022-12-11T23:43:36.322Z,20.92
2022-12-11T23:46:04.732Z,20.05
2022-12-11T23:48:31.304Z,22.23
2022-12-11T23:51:00.489Z,23.83
2022-12-11T23:53:28.531Z,22.05
2022-12-11T23:55:55.270Z,19.63
2022-12-11T23:58:22.351Z,24.50
